CSCL Summer — VRMZ7 — position and weather

sailwx.info

Track history (hours):
 
Tides and Currents Weather Stations Pressure Air Temp Water Temp Dewpoint Dewpoint Depression Visibility Wind Speed Wind Dir Waves Ship Positions

CSCL Summer

Last reported at 2017-Nov-20 00:29 UTC. Time now 2017-Nov-23 11:08 UTC.
Position N 37°48' W 122°19'.

Length 335 m; draft 11.5 m.

Type: Ship (hazmat cat A). MMSI: 477293900.

Date/timePositionNaut miles runAvg speedWind from/ knotsBaromVisibWave heightAir tempDewpointWater temp
2017-Nov-20 00:29N 37°48' W 122°19'0 0.0
2017-Nov-19 23:59N 37°48' W 122°19'0 0.0
2017-Nov-19 23:29N 37°48' W 122°19'0 0.0
2017-Nov-19 22:59N 37°48' W 122°19'0 0.0
2017-Nov-19 22:29N 37°48' W 122°19'0 0.0
2017-Nov-19 21:59N 37°48' W 122°19'0 0.0
2017-Nov-19 21:29N 37°48' W 122°19'0 0.0
2017-Nov-19 20:59N 37°48' W 122°19'0 0.0
2017-Nov-19 20:29N 37°48' W 122°19'0 0.0
2017-Nov-19 19:59N 37°48' W 122°19'0 0.0
2017-Nov-19 19:29N 37°48' W 122°19'0 0.0
2017-Nov-19 18:59N 37°48' W 122°19'0 0.0
2017-Nov-19 18:29N 37°48' W 122°19'0 0.0
2017-Nov-19 17:59N 37°48' W 122°19'0 0.0
2017-Nov-19 17:29N 37°48' W 122°19'0 0.0
2017-Nov-19 16:59N 37°48' W 122°19'0 0.0
2017-Nov-19 16:29N 37°48' W 122°19'0 0.0
2017-Nov-19 15:59N 37°48' W 122°19'0 0.0
2017-Nov-19 15:29N 37°48' W 122°19'0 0.0
2017-Nov-19 14:59N 37°48' W 122°19'0 0.0
2017-Nov-19 14:31N 37°48' W 122°19'1 1.0
2017-Nov-19 14:01N 37°48' W 122°19'0 0.3
2017-Nov-19 13:31N 37°48' W 122°19'0 0.3
2017-Nov-19 13:01N 37°48' W 122°19'1 1.5
2017-Nov-19 12:30N 37°48' W 122°20'4 7.4
2017-Nov-19 12:00N 37°49' W 122°24'5 9.8
2017-Nov-19 11:30N 37°48' W 122°30'816.4
2017-Nov-19 11:00N 37°45' W 122°40'612.9
2017-Nov-19 10:31N 37°41' W 122°46'611.5
2017-Nov-19 10:00N 37°38' W 122°52'611.7
2017-Nov-19 09:30N 37°34' W 122°58'611.1
2017-Nov-19 09:00N 37°30' W 123°03'612.3
2017-Nov-19 08:30N 37°24' W 123°03'612.2
2017-Nov-19 08:00N 37°18' W 123°03'611.7
2017-Nov-19 07:31N 37°12' W 123°01'612.4
2017-Nov-19 07:01N 37°07' W 122°58'612.3
2017-Nov-19 06:31N 37°01' W 122°55'612.4
2017-Nov-19 06:00N 36°56' W 122°51'612.2
2017-Nov-19 05:30N 36°50' W 122°47'612.2
2017-Nov-19 05:00N 36°45' W 122°44'612.0
2017-Nov-19 04:30N 36°39' W 122°41'612.0
2017-Nov-19 04:00N 36°34' W 122°39'611.9
2017-Nov-19 03:30N 36°28' W 122°36'612.1
2017-Nov-19 03:00N 36°23' W 122°33'612.2
2017-Nov-19 02:30N 36°17' W 122°29'612.4
2017-Nov-19 02:00N 36°11' W 122°26'612.5
2017-Nov-19 01:30N 36°06' W 122°22'612.5
2017-Nov-19 01:00N 36°00' W 122°19'612.1
2017-Nov-19 00:30N 35°55' W 122°15'611.0
2017-Nov-19 00:00N 35°50' W 122°11'613.1
2017-Nov-18 23:30N 35°45' W 122°07'713.1
2017-Nov-18 23:00N 35°40' W 122°02'713.1
2017-Nov-18 22:30N 35°35' W 121°57'612.4
2017-Nov-18 22:00N 35°30' W 121°52'612.0
2017-Nov-18 21:30N 35°26' W 121°47'612.5
2017-Nov-18 21:00N 35°21' W 121°42'612.9
2017-Nov-18 20:30N 35°16' W 121°38'713.1
2017-Nov-18 20:00N 35°10' W 121°33'713.0
2017-Nov-18 19:30N 35°05' W 121°28'612.8
2017-Nov-18 19:00N 34°60' W 121°23'612.9
2017-Nov-18 18:30N 34°55' W 121°19'612.1
2017-Nov-18 18:00N 34°50' W 121°14'611.7
2017-Nov-18 17:30N 34°45' W 121°10'611.4
2017-Nov-18 17:01N 34°41' W 121°06'611.5
2017-Nov-18 16:30N 34°36' W 121°01'611.4
2017-Nov-18 16:00N 34°32' W 120°57'611.7
2017-Nov-18 15:30N 34°27' W 120°53'611.4
2017-Nov-18 14:59N 34°25' W 120°46'611.8
2017-Nov-18 14:30N 34°23' W 120°40'612.0
2017-Nov-18 14:00N 34°22' W 120°32'712.2
2017-Nov-18 13:27N 34°20' W 120°25'612.3
2017-Nov-18 13:00N 34°19' W 120°18'712.5
2017-Nov-18 12:28N 34°17' W 120°10'612.3
2017-Nov-18 12:00N 34°15' W 120°04'711.9
2017-Nov-18 11:26N 34°14' W 119°56'512.0
2017-Nov-18 10:59N 34°12' W 119°50'611.7
2017-Nov-18 10:30N 34°11' W 119°43'611.7
2017-Nov-18 10:00N 34°09' W 119°36'611.8
2017-Nov-18 09:30N 34°08' W 119°29'611.4
2017-Nov-18 09:00N 34°06' W 119°23'611.4
2017-Nov-18 08:29N 34°04' W 119°16'511.5
2017-Nov-18 08:00N 34°02' W 119°10'711.7
2017-Nov-18 07:27N 33°59' W 119°03'511.8
2017-Nov-18 07:00N 33°56' W 118°58'611.7
2017-Nov-18 06:30N 33°53' W 118°51'611.7
2017-Nov-18 06:00N 33°50' W 118°45'611.5
2017-Nov-18 05:30N 33°47' W 118°39'611.6
2017-Nov-18 05:00N 33°44' W 118°33'611.5
2017-Nov-18 04:30N 33°42' W 118°27'611.6
2017-Nov-18 04:00N 33°39' W 118°21'611.2
2017-Nov-18 03:30N 33°38' W 118°15'4 8.7
2017-Nov-18 03:00N 33°42' W 118°11'2 0.9
2017-Nov-18 00:27N 33°44' W 118°11'0 0.0
2017-Nov-17 23:57N 33°44' W 118°11'0 0.0
2017-Nov-17 23:27N 33°44' W 118°11'0 0.0
2017-Nov-17 22:45N 33°44' W 118°11'0 0.0
2017-Nov-17 22:27N 33°44' W 118°11'0 0.0
2017-Nov-17 17:39N 33°44' W 118°11'0 0.0
2017-Nov-17 17:27N 33°44' W 118°11'0 0.0
2017-Nov-17 16:57N 33°44' W 118°11'0 0.0
2017-Nov-17 12:21N 33°44' W 118°11'0 0.0
2017-Nov-17 11:57N 33°44' W 118°11'0 0.0
2017-Nov-17 11:21N 33°44' W 118°11'0 0.0
2017-Nov-17 10:51N 33°44' W 118°11'0 0.0
2017-Nov-17 10:27N 33°44' W 118°11'0 0.0
2017-Nov-17 07:45N 33°44' W 118°11'0 0.0
2017-Nov-17 07:27N 33°44' W 118°11'0 0.0
2017-Nov-17 06:57N 33°44' W 118°11'0 0.0
2017-Nov-17 06:27N 33°44' W 118°11'0 0.0
2017-Nov-17 05:39N 33°44' W 118°11'0 0.0
2017-Nov-17 05:27N 33°44' W 118°11'0 0.0
2017-Nov-17 02:21N 33°44' W 118°11'0 0.0
2017-Nov-17 01:57N 33°44' W 118°11'0 0.0
2017-Nov-16 18:39N 33°44' W 118°11'0 0.0
2017-Nov-16 18:09N 33°44' W 118°11'0 0.0
2017-Nov-16 17:57N 33°44' W 118°11'0 0.1
2017-Nov-16 17:27N 33°44' W 118°11'0 0.1
2017-Nov-16 16:57N 33°44' W 118°11'0 0.0
2017-Nov-16 16:21N 33°44' W 118°11'0 0.0
2017-Nov-16 15:51N 33°44' W 118°11'0 0.0
2017-Nov-16 15:27N 33°44' W 118°11'0 0.0
2017-Nov-16 14:57N 33°44' W 118°11'0 0.0
2017-Nov-16 14:27N 33°44' W 118°11'0 0.0
2017-Nov-16 13:57N 33°44' W 118°11'0 0.0
2017-Nov-16 13:27N 33°44' W 118°11'0 0.0
2017-Nov-16 12:57N 33°44' W 118°11'0 0.0
2017-Nov-16 12:27N 33°44' W 118°11'0 0.0
2017-Nov-16 11:57N 33°44' W 118°11'0 0.0
2017-Nov-16 11:27N 33°44' W 118°11'0 0.0
2017-Nov-16 10:57N 33°44' W 118°11'0 0.0
2017-Nov-16 10:27N 33°44' W 118°11'0 0.0
2017-Nov-16 09:57N 33°44' W 118°11'0 0.1
2017-Nov-16 09:27N 33°44' W 118°11'0 0.1
2017-Nov-16 08:57N 33°44' W 118°11'0 0.0
2017-Nov-16 08:27N 33°44' W 118°11'0 0.0
2017-Nov-16 07:57N 33°44' W 118°11'0 0.0
2017-Nov-16 07:27N 33°44' W 118°11'0 0.0
2017-Nov-16 06:51N 33°44' W 118°11'0 0.0
2017-Nov-16 06:27N 33°44' W 118°11'0 0.0
2017-Nov-16 05:57N 33°44' W 118°11'0 0.0
2017-Nov-16 05:21N 33°44' W 118°11'0 0.0
2017-Nov-16 04:51N 33°44' W 118°11'0 0.0
2017-Nov-16 04:27N 33°44' W 118°11'0 0.0
2017-Nov-16 03:57N 33°44' W 118°11'0 0.0
2017-Nov-16 03:30N 33°44' W 118°11'0 0.0
2017-Nov-16 02:57N 33°44' W 118°11'0 0.0
2017-Nov-16 02:27N 33°44' W 118°11'0 0.0
2017-Nov-16 01:57N 33°44' W 118°11'0 0.0
2017-Nov-16 01:27N 33°44' W 118°11'0 0.0
2017-Nov-16 00:51N 33°44' W 118°11'0 0.0
2017-Nov-16 00:21N 33°44' W 118°11'0 0.1
2017-Nov-15 23:57N 33°44' W 118°11'0 0.1
2017-Nov-15 23:27N 33°44' W 118°11'0 0.0
2017-Nov-15 22:57N 33°44' W 118°11'0 0.0
2017-Nov-15 22:27N 33°44' W 118°11'0 0.0
2017-Nov-15 21:57N 33°44' W 118°11'0 0.1
2017-Nov-15 21:15N 33°44' W 118°11'0 0.0
2017-Nov-15 20:57N 33°44' W 118°11'0 0.0
2017-Nov-15 19:21N 33°44' W 118°11'0 0.0
2017-Nov-15 18:57N 33°44' W 118°11'0 0.1
2017-Nov-15 18:03N 33°44' W 118°11'0 0.1
2017-Nov-15 17:57N 33°44' W 118°11'0 0.1
2017-Nov-15 17:27N 33°44' W 118°11'0 0.0
2017-Nov-15 16:27N 33°44' W 118°11'0 0.0
2017-Nov-15 15:27N 33°44' W 118°11'0 0.0
2017-Nov-15 15:00N 33°44' W 118°11'0 0.0
2017-Nov-15 14:30N 33°44' W 118°11'0 0.0
2017-Nov-15 14:00N 33°44' W 118°11'0 0.0
2017-Nov-15 13:30N 33°44' W 118°11'0 0.0
2017-Nov-15 13:00N 33°44' W 118°11'0 0.1
2017-Nov-15 12:30N 33°44' W 118°11'0 0.0
2017-Nov-15 12:00N 33°44' W 118°11'0 0.1
2017-Nov-15 11:27N 33°44' W 118°11'0 0.0
2017-Nov-15 10:57N 33°44' W 118°11'0 0.0
2017-Nov-15 10:27N 33°44' W 118°11'0 0.0
2017-Nov-15 10:00N 33°44' W 118°11'0 0.1
2017-Nov-15 09:15N 33°44' W 118°11'0 0.0
2017-Nov-15 08:57N 33°44' W 118°11'0 0.1
2017-Nov-15 08:21N 33°44' W 118°11'0 0.0
2017-Nov-15 07:57N 33°44' W 118°11'0 0.0
2017-Nov-15 07:27N 33°44' W 118°11'0 0.0
2017-Nov-15 07:00N 33°44' W 118°11'0 0.0
2017-Nov-15 06:27N 33°44' W 118°11'0 0.0
2017-Nov-15 06:00N 33°44' W 118°11'0 0.1
2017-Nov-15 05:27N 33°44' W 118°11'0 0.0
2017-Nov-15 04:51N 33°44' W 118°11'0 0.0
2017-Nov-15 04:27N 33°44' W 118°11'0 0.1
2017-Nov-15 03:57N 33°44' W 118°11'0 0.0
2017-Nov-15 03:27N 33°44' W 118°11'0 0.0
2017-Nov-15 02:57N 33°44' W 118°11'0 0.0
2017-Nov-15 01:03N 33°44' W 118°11'0 0.0
2017-Nov-15 00:57N 33°44' W 118°11'0 0.0
2017-Nov-15 00:27N 33°44' W 118°11'0 0.0
2017-Nov-14 23:57N 33°44' W 118°11'0 0.0
2017-Nov-14 23:27N 33°44' W 118°11'1 1.1
2017-Nov-14 23:00N 33°44' W 118°11'3 6.7
2017-Nov-14 22:31N 33°41' W 118°11'4 8.0
2017-Nov-14 22:00N 33°37' W 118°12'510.7
2017-Nov-14 21:30N 33°36' W 118°19'611.5
2017-Nov-14 21:00N 33°38' W 118°25'611.9
2017-Nov-14 20:30N 33°41' W 118°31'611.9
2017-Nov-14 20:00N 33°44' W 118°38'611.5
2017-Nov-14 19:29N 33°47' W 118°44'611.7
2017-Nov-14 19:00N 33°50' W 118°50'611.9
2017-Nov-14 18:30N 33°53' W 118°56'611.7
2017-Nov-14 18:00N 33°56' W 119°02'611.8
2017-Nov-14 17:30N 33°59' W 119°08'612.1
2017-Nov-14 16:59N 34°02' W 119°15'611.8
2017-Nov-14 16:30N 34°04' W 119°21'611.8
2017-Nov-14 15:59N 34°05' W 119°28'613.4
2017-Nov-14 15:31N 34°07' W 119°36'713.5
2017-Nov-14 15:00N 34°09' W 119°44'713.6
2017-Nov-14 14:28N 34°11' W 119°52'613.8
2017-Nov-14 14:00N 34°12' W 119°60'813.7
2017-Nov-14 13:27N 34°14' W 120°08'613.6
2017-Nov-14 13:00N 34°16' W 120°16'813.9
2017-Nov-14 12:27N 34°18' W 120°25'614.0
2017-Nov-14 12:00N 34°20' W 120°32'713.2
2017-Nov-14 11:29N 34°21' W 120°40'613.1
2017-Nov-14 10:59N 34°22' W 120°48'613.0
2017-Nov-14 10:30N 34°21' W 120°55'612.6
2017-Nov-14 10:00N 34°18' W 121°02'3 5.2
2017-Nov-14 09:31N 34°18' W 121°05'1 2.3
2017-Nov-14 09:00N 34°18' W 121°06'4 8.8
2017-Nov-14 08:30N 34°22' W 121°07'5 9.2
2017-Nov-14 08:00N 34°27' W 121°08'5 9.8
2017-Nov-14 07:29N 34°32' W 121°11'713.9
2017-Nov-14 07:01N 34°37' W 121°16'713.9
2017-Nov-14 06:30N 34°42' W 121°21'713.8
2017-Nov-14 06:00N 34°48' W 121°26'714.1
2017-Nov-14 05:31N 34°54' W 121°31'714.0
2017-Nov-14 05:00N 34°59' W 121°36'714.0
2017-Nov-14 04:30N 35°05' W 121°41'714.2
2017-Nov-14 04:01N 35°11' W 121°46'714.2
2017-Nov-14 03:30N 35°17' W 121°51'714.1
2017-Nov-14 03:00N 35°22' W 121°56'714.4
2017-Nov-14 02:30N 35°28' W 122°01'917.1
2017-Nov-14 02:00N 35°35' W 122°08'917.1
2017-Nov-14 01:30N 35°42' W 122°14'816.8
2017-Nov-14 01:01N 35°49' W 122°20'814.9
2017-Nov-14 00:29N 35°55' W 122°25'510.9
2017-Nov-14 00:00N 35°59' W 122°29'816.4
2017-Nov-13 23:30N 36°06' W 122°35'816.4
2017-Nov-13 23:00N 36°13' W 122°41'816.5
2017-Nov-13 22:30N 36°19' W 122°47'816.7
2017-Nov-13 22:00N 36°26' W 122°53'  
2017-Nov-11 07:16N 53°12' W 130°55'717.4
2017-Nov-11 06:52N 53°19' W 130°58'717.3
2017-Nov-11 06:28N 53°26' W 131°00'817.8
2017-Nov-11 06:01N 53°34' W 131°01'917.5
2017-Nov-11 05:30N 53°43' W 131°01'916.9
2017-Nov-11 05:00N 53°52' W 131°02'816.7
2017-Nov-11 04:30N 53°60' W 131°02'816.2
2017-Nov-11 04:00N 54°08' W 131°02'816.6
2017-Nov-11 03:30N 54°16' W 131°02'612.8
2017-Nov-11 03:01N 54°19' W 130°52'611.7
2017-Nov-11 02:30N 54°16' W 130°43'815.3
2017-Nov-11 02:00N 54°13' W 130°32'612.2
2017-Nov-11 01:31N 54°13' W 130°21'4 8.6
2017-Nov-11 01:00N 54°17' W 130°22'0 0.4
2017-Nov-11 00:30N 54°17' W 130°22'0 0.0
2017-Nov-10 23:57N 54°17' W 130°22'0 0.0
2017-Nov-10 22:27N 54°17' W 130°22'0 0.0
2017-Nov-10 21:27N 54°17' W 130°22'0 0.0
2017-Nov-10 20:57N 54°17' W 130°22'0 0.0
2017-Nov-10 19:33N 54°17' W 130°22'0 0.0
2017-Nov-10 19:15N 54°17' W 130°22'0 0.0
2017-Nov-10 18:57N 54°17' W 130°22'0 0.0
2017-Nov-10 18:27N 54°17' W 130°22'0 0.0
2017-Nov-10 17:54N 54°17' W 130°22'0 0.0
2017-Nov-10 17:21N 54°17' W 130°22'0 0.0
2017-Nov-10 16:57N 54°17' W 130°22'0 0.0
2017-Nov-10 16:30N 54°17' W 130°22'0 0.0
2017-Nov-10 16:00N 54°17' W 130°22'0 0.0
2017-Nov-10 15:30N 54°17' W 130°22'0 0.0
2017-Nov-10 14:51N 54°17' W 130°22'0 0.0
2017-Nov-10 14:27N 54°17' W 130°22'0 0.0
2017-Nov-10 13:45N 54°17' W 130°22'0 0.0
2017-Nov-10 13:15N 54°17' W 130°22'0 0.0
2017-Nov-10 12:57N 54°17' W 130°22'0 0.0
2017-Nov-10 11:03N 54°17' W 130°22'0 0.0
2017-Nov-10 10:45N 54°17' W 130°22'0 0.0
2017-Nov-10 10:21N 54°17' W 130°22'0 0.0
2017-Nov-10 09:57N 54°17' W 130°22'0 0.0
2017-Nov-10 07:03N 54°17' W 130°22'0 0.2
2017-Nov-10 06:57N 54°17' W 130°22'0 0.0
2017-Nov-10 06:21N 54°17' W 130°22'0 0.0
2017-Nov-10 04:48N 54°17' W 130°22'0 0.0
2017-Nov-10 04:18N 54°17' W 130°22'0 0.0
2017-Nov-10 03:57N 54°17' W 130°22'0 0.1
2017-Nov-10 03:27N 54°17' W 130°22'0 0.1
2017-Nov-10 03:00N 54°17' W 130°22'0 0.0
2017-Nov-10 02:30N 54°17' W 130°22'0 0.0
2017-Nov-10 02:00N 54°17' W 130°22'0 0.0
2017-Nov-10 01:30N 54°17' W 130°22'0 0.0
2017-Nov-10 01:00N 54°17' W 130°22'0 0.0
2017-Nov-10 00:30N 54°17' W 130°22'  
Track history (hours):
 
Tides and Currents Weather Stations Pressure Air Temp Water Temp Dewpoint Dewpoint Depression Visibility Wind Speed Wind Dir Waves Ship Positions

CSCL Summer

Last reported at 2017-Nov-20 00:29 UTC. Time now 2017-Nov-23 11:08 UTC.
Position N 37°48' W 122°19'.

Length 335 m; draft 11.5 m.

Type: Ship (hazmat cat A). MMSI: 477293900.

Date/timePositionNaut miles runAvg speedWind from/ knotsBaromVisibWave heightAir tempDewpointWater temp
2017-Nov-20 00:29N 37°48' W 122°19'0 0.0
2017-Nov-19 23:59N 37°48' W 122°19'0 0.0
2017-Nov-19 23:29N 37°48' W 122°19'0 0.0
2017-Nov-19 22:59N 37°48' W 122°19'0 0.0
2017-Nov-19 22:29N 37°48' W 122°19'0 0.0
2017-Nov-19 21:59N 37°48' W 122°19'0 0.0
2017-Nov-19 21:29N 37°48' W 122°19'0 0.0
2017-Nov-19 20:59N 37°48' W 122°19'0 0.0
2017-Nov-19 20:29N 37°48' W 122°19'0 0.0
2017-Nov-19 19:59N 37°48' W 122°19'0 0.0
2017-Nov-19 19:29N 37°48' W 122°19'0 0.0
2017-Nov-19 18:59N 37°48' W 122°19'0 0.0
2017-Nov-19 18:29N 37°48' W 122°19'0 0.0
2017-Nov-19 17:59N 37°48' W 122°19'0 0.0
2017-Nov-19 17:29N 37°48' W 122°19'0 0.0
2017-Nov-19 16:59N 37°48' W 122°19'0 0.0
2017-Nov-19 16:29N 37°48' W 122°19'0 0.0
2017-Nov-19 15:59N 37°48' W 122°19'0 0.0
2017-Nov-19 15:29N 37°48' W 122°19'0 0.0
2017-Nov-19 14:59N 37°48' W 122°19'0 0.0
2017-Nov-19 14:31N 37°48' W 122°19'1 1.0
2017-Nov-19 14:01N 37°48' W 122°19'0 0.3
2017-Nov-19 13:31N 37°48' W 122°19'0 0.3
2017-Nov-19 13:01N 37°48' W 122°19'1 1.5
2017-Nov-19 12:30N 37°48' W 122°20'4 7.4
2017-Nov-19 12:00N 37°49' W 122°24'5 9.8
2017-Nov-19 11:30N 37°48' W 122°30'816.4
2017-Nov-19 11:00N 37°45' W 122°40'612.9
2017-Nov-19 10:31N 37°41' W 122°46'611.5
2017-Nov-19 10:00N 37°38' W 122°52'611.7
2017-Nov-19 09:30N 37°34' W 122°58'611.1
2017-Nov-19 09:00N 37°30' W 123°03'612.3
2017-Nov-19 08:30N 37°24' W 123°03'612.2
2017-Nov-19 08:00N 37°18' W 123°03'611.7
2017-Nov-19 07:31N 37°12' W 123°01'612.4
2017-Nov-19 07:01N 37°07' W 122°58'612.3
2017-Nov-19 06:31N 37°01' W 122°55'612.4
2017-Nov-19 06:00N 36°56' W 122°51'612.2
2017-Nov-19 05:30N 36°50' W 122°47'612.2
2017-Nov-19 05:00N 36°45' W 122°44'612.0
2017-Nov-19 04:30N 36°39' W 122°41'612.0
2017-Nov-19 04:00N 36°34' W 122°39'611.9
2017-Nov-19 03:30N 36°28' W 122°36'612.1
2017-Nov-19 03:00N 36°23' W 122°33'612.2
2017-Nov-19 02:30N 36°17' W 122°29'612.4
2017-Nov-19 02:00N 36°11' W 122°26'612.5
2017-Nov-19 01:30N 36°06' W 122°22'612.5
2017-Nov-19 01:00N 36°00' W 122°19'612.1
2017-Nov-19 00:30N 35°55' W 122°15'611.0
2017-Nov-19 00:00N 35°50' W 122°11'613.1
2017-Nov-18 23:30N 35°45' W 122°07'713.1
2017-Nov-18 23:00N 35°40' W 122°02'713.1
2017-Nov-18 22:30N 35°35' W 121°57'612.4
2017-Nov-18 22:00N 35°30' W 121°52'612.0
2017-Nov-18 21:30N 35°26' W 121°47'612.5
2017-Nov-18 21:00N 35°21' W 121°42'612.9
2017-Nov-18 20:30N 35°16' W 121°38'713.1
2017-Nov-18 20:00N 35°10' W 121°33'713.0
2017-Nov-18 19:30N 35°05' W 121°28'612.8
2017-Nov-18 19:00N 34°60' W 121°23'612.9
2017-Nov-18 18:30N 34°55' W 121°19'612.1
2017-Nov-18 18:00N 34°50' W 121°14'611.7
2017-Nov-18 17:30N 34°45' W 121°10'611.4
2017-Nov-18 17:01N 34°41' W 121°06'611.5
2017-Nov-18 16:30N 34°36' W 121°01'611.4
2017-Nov-18 16:00N 34°32' W 120°57'611.7
2017-Nov-18 15:30N 34°27' W 120°53'611.4
2017-Nov-18 14:59N 34°25' W 120°46'611.8
2017-Nov-18 14:30N 34°23' W 120°40'612.0
2017-Nov-18 14:00N 34°22' W 120°32'712.2
2017-Nov-18 13:27N 34°20' W 120°25'612.3
2017-Nov-18 13:00N 34°19' W 120°18'712.5
2017-Nov-18 12:28N 34°17' W 120°10'612.3
2017-Nov-18 12:00N 34°15' W 120°04'711.9
2017-Nov-18 11:26N 34°14' W 119°56'512.0
2017-Nov-18 10:59N 34°12' W 119°50'611.7
2017-Nov-18 10:30N 34°11' W 119°43'611.7
2017-Nov-18 10:00N 34°09' W 119°36'611.8
2017-Nov-18 09:30N 34°08' W 119°29'611.4
2017-Nov-18 09:00N 34°06' W 119°23'611.4
2017-Nov-18 08:29N 34°04' W 119°16'511.5
2017-Nov-18 08:00N 34°02' W 119°10'711.7
2017-Nov-18 07:27N 33°59' W 119°03'511.8
2017-Nov-18 07:00N 33°56' W 118°58'611.7
2017-Nov-18 06:30N 33°53' W 118°51'611.7
2017-Nov-18 06:00N 33°50' W 118°45'611.5
2017-Nov-18 05:30N 33°47' W 118°39'611.6
2017-Nov-18 05:00N 33°44' W 118°33'611.5
2017-Nov-18 04:30N 33°42' W 118°27'611.6
2017-Nov-18 04:00N 33°39' W 118°21'611.2
2017-Nov-18 03:30N 33°38' W 118°15'4 8.7
2017-Nov-18 03:00N 33°42' W 118°11'2 0.9
2017-Nov-18 00:27N 33°44' W 118°11'0 0.0
2017-Nov-17 23:57N 33°44' W 118°11'0 0.0
2017-Nov-17 23:27N 33°44' W 118°11'0 0.0
2017-Nov-17 22:45N 33°44' W 118°11'0 0.0
2017-Nov-17 22:27N 33°44' W 118°11'0 0.0
2017-Nov-17 17:39N 33°44' W 118°11'0 0.0
2017-Nov-17 17:27N 33°44' W 118°11'0 0.0
2017-Nov-17 16:57N 33°44' W 118°11'0 0.0
2017-Nov-17 12:21N 33°44' W 118°11'0 0.0
2017-Nov-17 11:57N 33°44' W 118°11'0 0.0
2017-Nov-17 11:21N 33°44' W 118°11'0 0.0
2017-Nov-17 10:51N 33°44' W 118°11'0 0.0
2017-Nov-17 10:27N 33°44' W 118°11'0 0.0
2017-Nov-17 07:45N 33°44' W 118°11'0 0.0
2017-Nov-17 07:27N 33°44' W 118°11'0 0.0
2017-Nov-17 06:57N 33°44' W 118°11'0 0.0
2017-Nov-17 06:27N 33°44' W 118°11'0 0.0
2017-Nov-17 05:39N 33°44' W 118°11'0 0.0
2017-Nov-17 05:27N 33°44' W 118°11'0 0.0
2017-Nov-17 02:21N 33°44' W 118°11'0 0.0
2017-Nov-17 01:57N 33°44' W 118°11'0 0.0
2017-Nov-16 18:39N 33°44' W 118°11'0 0.0
2017-Nov-16 18:09N 33°44' W 118°11'0 0.0
2017-Nov-16 17:57N 33°44' W 118°11'0 0.1
2017-Nov-16 17:27N 33°44' W 118°11'0 0.1
2017-Nov-16 16:57N 33°44' W 118°11'0 0.0
2017-Nov-16 16:21N 33°44' W 118°11'0 0.0
2017-Nov-16 15:51N 33°44' W 118°11'0 0.0
2017-Nov-16 15:27N 33°44' W 118°11'0 0.0
2017-Nov-16 14:57N 33°44' W 118°11'0 0.0
2017-Nov-16 14:27N 33°44' W 118°11'0 0.0
2017-Nov-16 13:57N 33°44' W 118°11'0 0.0
2017-Nov-16 13:27N 33°44' W 118°11'0 0.0
2017-Nov-16 12:57N 33°44' W 118°11'0 0.0
2017-Nov-16 12:27N 33°44' W 118°11'0 0.0
2017-Nov-16 11:57N 33°44' W 118°11'0 0.0
2017-Nov-16 11:27N 33°44' W 118°11'0 0.0
2017-Nov-16 10:57N 33°44' W 118°11'0 0.0
2017-Nov-16 10:27N 33°44' W 118°11'0 0.0
2017-Nov-16 09:57N 33°44' W 118°11'0 0.1
2017-Nov-16 09:27N 33°44' W 118°11'0 0.1
2017-Nov-16 08:57N 33°44' W 118°11'0 0.0
2017-Nov-16 08:27N 33°44' W 118°11'0 0.0
2017-Nov-16 07:57N 33°44' W 118°11'0 0.0
2017-Nov-16 07:27N 33°44' W 118°11'0 0.0
2017-Nov-16 06:51N 33°44' W 118°11'0 0.0
2017-Nov-16 06:27N 33°44' W 118°11'0 0.0
2017-Nov-16 05:57N 33°44' W 118°11'0 0.0
2017-Nov-16 05:21N 33°44' W 118°11'0 0.0
2017-Nov-16 04:51N 33°44' W 118°11'0 0.0
2017-Nov-16 04:27N 33°44' W 118°11'0 0.0
2017-Nov-16 03:57N 33°44' W 118°11'0 0.0
2017-Nov-16 03:30N 33°44' W 118°11'0 0.0
2017-Nov-16 02:57N 33°44' W 118°11'0 0.0
2017-Nov-16 02:27N 33°44' W 118°11'0 0.0
2017-Nov-16 01:57N 33°44' W 118°11'0 0.0
2017-Nov-16 01:27N 33°44' W 118°11'0 0.0
2017-Nov-16 00:51N 33°44' W 118°11'0 0.0
2017-Nov-16 00:21N 33°44' W 118°11'0 0.1
2017-Nov-15 23:57N 33°44' W 118°11'0 0.1
2017-Nov-15 23:27N 33°44' W 118°11'0 0.0
2017-Nov-15 22:57N 33°44' W 118°11'0 0.0
2017-Nov-15 22:27N 33°44' W 118°11'0 0.0
2017-Nov-15 21:57N 33°44' W 118°11'0 0.1
2017-Nov-15 21:15N 33°44' W 118°11'0 0.0
2017-Nov-15 20:57N 33°44' W 118°11'0 0.0
2017-Nov-15 19:21N 33°44' W 118°11'0 0.0
2017-Nov-15 18:57N 33°44' W 118°11'0 0.1
2017-Nov-15 18:03N 33°44' W 118°11'0 0.1
2017-Nov-15 17:57N 33°44' W 118°11'0 0.1
2017-Nov-15 17:27N 33°44' W 118°11'0 0.0
2017-Nov-15 16:27N 33°44' W 118°11'0 0.0
2017-Nov-15 15:27N 33°44' W 118°11'0 0.0
2017-Nov-15 15:00N 33°44' W 118°11'0 0.0
2017-Nov-15 14:30N 33°44' W 118°11'0 0.0
2017-Nov-15 14:00N 33°44' W 118°11'0 0.0
2017-Nov-15 13:30N 33°44' W 118°11'0 0.0
2017-Nov-15 13:00N 33°44' W 118°11'0 0.1
2017-Nov-15 12:30N 33°44' W 118°11'0 0.0
2017-Nov-15 12:00N 33°44' W 118°11'0 0.1
2017-Nov-15 11:27N 33°44' W 118°11'0 0.0
2017-Nov-15 10:57N 33°44' W 118°11'0 0.0
2017-Nov-15 10:27N 33°44' W 118°11'0 0.0
2017-Nov-15 10:00N 33°44' W 118°11'0 0.1
2017-Nov-15 09:15N 33°44' W 118°11'0 0.0
2017-Nov-15 08:57N 33°44' W 118°11'0 0.1
2017-Nov-15 08:21N 33°44' W 118°11'0 0.0
2017-Nov-15 07:57N 33°44' W 118°11'0 0.0
2017-Nov-15 07:27N 33°44' W 118°11'0 0.0
2017-Nov-15 07:00N 33°44' W 118°11'0 0.0
2017-Nov-15 06:27N 33°44' W 118°11'0 0.0
2017-Nov-15 06:00N 33°44' W 118°11'0 0.1
2017-Nov-15 05:27N 33°44' W 118°11'0 0.0
2017-Nov-15 04:51N 33°44' W 118°11'0 0.0
2017-Nov-15 04:27N 33°44' W 118°11'0 0.1
2017-Nov-15 03:57N 33°44' W 118°11'0 0.0
2017-Nov-15 03:27N 33°44' W 118°11'0 0.0
2017-Nov-15 02:57N 33°44' W 118°11'0 0.0
2017-Nov-15 01:03N 33°44' W 118°11'0 0.0
2017-Nov-15 00:57N 33°44' W 118°11'0 0.0
2017-Nov-15 00:27N 33°44' W 118°11'0 0.0
2017-Nov-14 23:57N 33°44' W 118°11'0 0.0
2017-Nov-14 23:27N 33°44' W 118°11'1 1.1
2017-Nov-14 23:00N 33°44' W 118°11'3 6.7
2017-Nov-14 22:31N 33°41' W 118°11'4 8.0
2017-Nov-14 22:00N 33°37' W 118°12'510.7
2017-Nov-14 21:30N 33°36' W 118°19'611.5
2017-Nov-14 21:00N 33°38' W 118°25'611.9
2017-Nov-14 20:30N 33°41' W 118°31'611.9
2017-Nov-14 20:00N 33°44' W 118°38'611.5
2017-Nov-14 19:29N 33°47' W 118°44'611.7
2017-Nov-14 19:00N 33°50' W 118°50'611.9
2017-Nov-14 18:30N 33°53' W 118°56'611.7
2017-Nov-14 18:00N 33°56' W 119°02'611.8
2017-Nov-14 17:30N 33°59' W 119°08'612.1
2017-Nov-14 16:59N 34°02' W 119°15'611.8
2017-Nov-14 16:30N 34°04' W 119°21'611.8
2017-Nov-14 15:59N 34°05' W 119°28'613.4
2017-Nov-14 15:31N 34°07' W 119°36'713.5
2017-Nov-14 15:00N 34°09' W 119°44'713.6
2017-Nov-14 14:28N 34°11' W 119°52'613.8
2017-Nov-14 14:00N 34°12' W 119°60'813.7
2017-Nov-14 13:27N 34°14' W 120°08'613.6
2017-Nov-14 13:00N 34°16' W 120°16'813.9
2017-Nov-14 12:27N 34°18' W 120°25'614.0
2017-Nov-14 12:00N 34°20' W 120°32'713.2
2017-Nov-14 11:29N 34°21' W 120°40'613.1
2017-Nov-14 10:59N 34°22' W 120°48'613.0
2017-Nov-14 10:30N 34°21' W 120°55'612.6
2017-Nov-14 10:00N 34°18' W 121°02'3 5.2
2017-Nov-14 09:31N 34°18' W 121°05'1 2.3
2017-Nov-14 09:00N 34°18' W 121°06'4 8.8
2017-Nov-14 08:30N 34°22' W 121°07'5 9.2
2017-Nov-14 08:00N 34°27' W 121°08'5 9.8
2017-Nov-14 07:29N 34°32' W 121°11'713.9
2017-Nov-14 07:01N 34°37' W 121°16'713.9
2017-Nov-14 06:30N 34°42' W 121°21'713.8
2017-Nov-14 06:00N 34°48' W 121°26'714.1
2017-Nov-14 05:31N 34°54' W 121°31'714.0
2017-Nov-14 05:00N 34°59' W 121°36'714.0
2017-Nov-14 04:30N 35°05' W 121°41'714.2
2017-Nov-14 04:01N 35°11' W 121°46'714.2
2017-Nov-14 03:30N 35°17' W 121°51'714.1
2017-Nov-14 03:00N 35°22' W 121°56'714.4
2017-Nov-14 02:30N 35°28' W 122°01'917.1
2017-Nov-14 02:00N 35°35' W 122°08'917.1
2017-Nov-14 01:30N 35°42' W 122°14'816.8
2017-Nov-14 01:01N 35°49' W 122°20'814.9
2017-Nov-14 00:29N 35°55' W 122°25'510.9
2017-Nov-14 00:00N 35°59' W 122°29'816.4
2017-Nov-13 23:30N 36°06' W 122°35'816.4
2017-Nov-13 23:00N 36°13' W 122°41'816.5
2017-Nov-13 22:30N 36°19' W 122°47'816.7
2017-Nov-13 22:00N 36°26' W 122°53'  
2017-Nov-11 07:16N 53°12' W 130°55'717.4
2017-Nov-11 06:52N 53°19' W 130°58'717.3
2017-Nov-11 06:28N 53°26' W 131°00'817.8
2017-Nov-11 06:01N 53°34' W 131°01'917.5
2017-Nov-11 05:30N 53°43' W 131°01'916.9
2017-Nov-11 05:00N 53°52' W 131°02'816.7
2017-Nov-11 04:30N 53°60' W 131°02'816.2
2017-Nov-11 04:00N 54°08' W 131°02'816.6
2017-Nov-11 03:30N 54°16' W 131°02'612.8
2017-Nov-11 03:01N 54°19' W 130°52'611.7
2017-Nov-11 02:30N 54°16' W 130°43'815.3
2017-Nov-11 02:00N 54°13' W 130°32'612.2
2017-Nov-11 01:31N 54°13' W 130°21'4 8.6
2017-Nov-11 01:00N 54°17' W 130°22'0 0.4
2017-Nov-11 00:30N 54°17' W 130°22'0 0.0
2017-Nov-10 23:57N 54°17' W 130°22'0 0.0
2017-Nov-10 22:27N 54°17' W 130°22'0 0.0
2017-Nov-10 21:27N 54°17' W 130°22'0 0.0
2017-Nov-10 20:57N 54°17' W 130°22'0 0.0
2017-Nov-10 19:33N 54°17' W 130°22'0 0.0
2017-Nov-10 19:15N 54°17' W 130°22'0 0.0
2017-Nov-10 18:57N 54°17' W 130°22'0 0.0
2017-Nov-10 18:27N 54°17' W 130°22'0 0.0
2017-Nov-10 17:54N 54°17' W 130°22'0 0.0
2017-Nov-10 17:21N 54°17' W 130°22'0 0.0
2017-Nov-10 16:57N 54°17' W 130°22'0 0.0
2017-Nov-10 16:30N 54°17' W 130°22'0 0.0
2017-Nov-10 16:00N 54°17' W 130°22'0 0.0
2017-Nov-10 15:30N 54°17' W 130°22'0 0.0
2017-Nov-10 14:51N 54°17' W 130°22'0 0.0
2017-Nov-10 14:27N 54°17' W 130°22'0 0.0
2017-Nov-10 13:45N 54°17' W 130°22'0 0.0
2017-Nov-10 13:15N 54°17' W 130°22'0 0.0
2017-Nov-10 12:57N 54°17' W 130°22'0 0.0
2017-Nov-10 11:03N 54°17' W 130°22'0 0.0
2017-Nov-10 10:45N 54°17' W 130°22'0 0.0
2017-Nov-10 10:21N 54°17' W 130°22'0 0.0
2017-Nov-10 09:57N 54°17' W 130°22'0 0.0
2017-Nov-10 07:03N 54°17' W 130°22'0 0.2
2017-Nov-10 06:57N 54°17' W 130°22'0 0.0
2017-Nov-10 06:21N 54°17' W 130°22'0 0.0
2017-Nov-10 04:48N 54°17' W 130°22'0 0.0
2017-Nov-10 04:18N 54°17' W 130°22'0 0.0
2017-Nov-10 03:57N 54°17' W 130°22'0 0.1
2017-Nov-10 03:27N 54°17' W 130°22'0 0.1
2017-Nov-10 03:00N 54°17' W 130°22'0 0.0
2017-Nov-10 02:30N 54°17' W 130°22'0 0.0
2017-Nov-10 02:00N 54°17' W 130°22'0 0.0
2017-Nov-10 01:30N 54°17' W 130°22'0 0.0
2017-Nov-10 01:00N 54°17' W 130°22'0 0.0
2017-Nov-10 00:30N 54°17' W 130°22'  

Dump ship's entire track history